createdAt,value
2023-03-05T00:01:57.406Z,15459.97
2023-03-05T00:05:58.795Z,15417.03
2023-03-05T00:10:04.523Z,15431.34
2023-03-05T00:14:06.393Z,15455.88
2023-03-05T00:18:07.833Z,15453.84
2023-03-05T00:22:09.246Z,15447.69
2023-03-05T00:26:12.033Z,15474.28
2023-03-05T00:30:14.312Z,15464.06
2023-03-05T00:34:18.781Z,15431.34
2023-03-05T00:38:20.346Z,15421.13
2023-03-05T00:42:23.186Z,15441.56
2023-03-05T00:46:24.958Z,15425.22
2023-03-05T00:50:26.656Z,15437.47
2023-03-05T00:54:28.079Z,15459.97
2023-03-05T00:58:31.024Z,15435.44
2023-03-05T01:02:34.703Z,15425.22
2023-03-05T01:06:36.296Z,15437.47
2023-03-05T01:10:37.791Z,15476.31
2023-03-05T01:14:40.540Z,15441.56
2023-03-05T01:18:42.022Z,15468.16
2023-03-05T01:22:43.767Z,15417.03
2023-03-05T01:26:45.228Z,15453.84
2023-03-05T01:30:49.615Z,15466.09
2023-03-05T01:34:51.122Z,15474.28
2023-03-05T01:38:52.725Z,15455.88
2023-03-05T01:42:59.777Z,15464.06
2023-03-05T01:47:02.533Z,15457.94
2023-03-05T01:51:04.554Z,15470.19
2023-03-05T01:55:09.832Z,15453.84
2023-03-05T01:59:13.326Z,15457.94
2023-03-05T02:03:16.510Z,15462.00
2023-03-05T02:07:18.651Z,15474.28
2023-03-05T02:11:20.261Z,15484.50
2023-03-05T02:15:22.132Z,15484.50
2023-03-05T02:19:24.990Z,15472.25
2023-03-05T02:23:30.377Z,15464.06
2023-03-05T02:27:33.271Z,15494.72
2023-03-05T02:31:34.855Z,15478.38
2023-03-05T02:35:36.433Z,15466.09
2023-03-05T02:39:39.243Z,15478.38
2023-03-05T02:43:41.507Z,15482.47
2023-03-05T02:47:43.045Z,15466.09
2023-03-05T02:51:44.496Z,15447.69
2023-03-05T02:55:48.527Z,15462.00
2023-03-05T02:59:50.633Z,15451.78
2023-03-05T03:03:52.119Z,15437.47
2023-03-05T03:07:53.530Z,15478.38
2023-03-05T03:11:56.364Z,15449.75
2023-03-05T03:16:02.292Z,15445.66
2023-03-05T03:20:05.062Z,15447.69
2023-03-05T03:24:06.910Z,15449.75
2023-03-05T03:28:09.651Z,15406.81
2023-03-05T03:32:11.174Z,15462.00
2023-03-05T03:36:12.878Z,15447.69
2023-03-05T03:40:14.451Z,15449.75
2023-03-05T03:44:18.039Z,15443.63
2023-03-05T03:48:19.498Z,15429.31
2023-03-05T03:52:20.994Z,15429.31
2023-03-05T03:56:22.498Z,15441.56
2023-03-05T04:00:25.266Z,15453.84
2023-03-05T04:04:26.901Z,15439.53
2023-03-05T04:08:28.475Z,15435.44
2023-03-05T04:12:29.931Z,15421.13
2023-03-05T04:16:32.827Z,15425.22
2023-03-05T04:20:34.243Z,15431.34
2023-03-05T04:24:35.643Z,15449.75
2023-03-05T04:28:37.415Z,15464.06
2023-03-05T04:32:40.283Z,15490.63
2023-03-05T04:36:41.740Z,15449.75
2023-03-05T04:40:43.948Z,15462.00
2023-03-05T04:44:45.613Z,15445.66
2023-03-05T04:48:48.408Z,15427.25
2023-03-05T04:52:50.074Z,15445.66
2023-03-05T04:56:51.532Z,15421.13
2023-03-05T05:00:52.999Z,15433.41
2023-03-05T05:04:55.810Z,15433.41
2023-03-05T05:08:57.610Z,15396.59
2023-03-05T05:12:59.133Z,15421.13
2023-03-05T05:17:00.610Z,15431.34
2023-03-05T05:21:07.401Z,15392.50
2023-03-05T05:25:10.170Z,15429.31
2023-03-05T05:29:11.634Z,15425.22
2023-03-05T05:33:13.043Z,15457.94
2023-03-05T05:37:15.794Z,15429.31
2023-03-05T05:41:18.715Z,15455.88
2023-03-05T05:45:20.281Z,15390.47
2023-03-05T05:49:21.775Z,15443.63
2023-03-05T05:53:25.066Z,15421.13
2023-03-05T05:57:26.545Z,15421.13
2023-03-05T06:01:30.620Z,15447.69
2023-03-05T06:05:32.065Z,15402.72
2023-03-05T06:09:36.310Z,15408.84
2023-03-05T06:13:38.701Z,15398.63
2023-03-05T06:17:40.609Z,15410.91
2023-03-05T06:21:42.723Z,15408.84
2023-03-05T06:25:45.472Z,15429.31
2023-03-05T06:29:46.945Z,15412.94
2023-03-05T06:33:48.852Z,15435.44
2023-03-05T06:37:50.230Z,15417.03
2023-03-05T06:41:53.109Z,15421.13
2023-03-05T06:46:02.351Z,15408.84
2023-03-05T06:50:04.438Z,15412.94
2023-03-05T06:54:08.833Z,15388.41
2023-03-05T06:58:11.554Z,15412.94
2023-03-05T07:02:13.061Z,15425.22
2023-03-05T07:06:14.661Z,15400.69
2023-03-05T07:10:16.244Z,15388.41
2023-03-05T07:14:19.038Z,15388.41
2023-03-05T07:18:20.602Z,15386.38
2023-03-05T07:22:22.022Z,15390.47
2023-03-05T07:26:24.114Z,15390.47
2023-03-05T07:30:27.258Z,15384.31
2023-03-05T07:34:28.646Z,15392.50
2023-03-05T07:38:30.294Z,15423.16
2023-03-05T07:42:31.848Z,15417.03
2023-03-05T07:46:35.414Z,15425.22
2023-03-05T07:50:36.850Z,15421.13
2023-03-05T07:54:39.416Z,15417.03
2023-03-05T07:58:41.049Z,15441.56
2023-03-05T08:02:43.935Z,15429.31
2023-03-05T08:06:45.371Z,15406.81
2023-03-05T08:10:46.782Z,15425.22
2023-03-05T08:14:48.447Z,15406.81
2023-03-05T08:18:54.312Z,15437.47
2023-03-05T08:22:55.770Z,15431.34
2023-03-05T08:26:57.458Z,15441.56
2023-03-05T08:30:58.892Z,15410.91
2023-03-05T08:35:01.890Z,15445.66
2023-03-05T08:39:03.506Z,15412.94
2023-03-05T08:43:05.031Z,15425.22
2023-03-05T08:47:08.036Z,15457.94
2023-03-05T08:51:12.986Z,15431.34
2023-03-05T08:55:14.450Z,15404.78
2023-03-05T08:59:15.917Z,15421.13
2023-03-05T09:03:18.089Z,15437.47
2023-03-05T09:07:21.222Z,15421.13
2023-03-05T09:11:23.278Z,15425.22
2023-03-05T09:15:24.630Z,15443.63
2023-03-05T09:19:26.035Z,15459.97
2023-03-05T09:23:28.800Z,15445.66
2023-03-05T09:27:33.298Z,15504.94
2023-03-05T09:31:34.843Z,15533.56
2023-03-05T09:35:37.721Z,15531.53
2023-03-05T09:39:40.559Z,15498.81
2023-03-05T09:43:51.857Z,15490.63
2023-03-05T09:48:01.400Z,15480.41
2023-03-05T09:52:11.260Z,15490.63
2023-03-05T09:56:17.239Z,15480.41
2023-03-05T10:00:32.406Z,15500.84
2023-03-05T10:04:44.965Z,15527.44
2023-03-05T10:08:53.519Z,15480.41
2023-03-05T10:13:03.784Z,15554.00
2023-03-05T10:17:22.998Z,15517.22
2023-03-05T10:21:30.818Z,15509.03
2023-03-05T10:25:48.811Z,15509.03
2023-03-05T10:30:06.104Z,15509.03
2023-03-05T10:34:23.448Z,15472.25
2023-03-05T10:38:42.982Z,15502.91
2023-03-05T10:42:52.434Z,15468.16
2023-03-05T10:46:57.927Z,15459.97
2023-03-05T10:51:04.564Z,15445.66
2023-03-05T10:55:14.387Z,15423.16
2023-03-05T10:59:16.442Z,15404.78
2023-03-05T11:03:19.204Z,15437.47
2023-03-05T11:07:36.549Z,15400.69
2023-03-05T11:11:38.133Z,15421.13
2023-03-05T11:15:39.688Z,15429.31
2023-03-05T11:19:42.699Z,15449.75
2023-03-05T11:23:44.171Z,15437.47
2023-03-05T11:27:52.011Z,15433.41
2023-03-05T11:31:56.511Z,15449.75
2023-03-05T11:36:26.726Z,15421.13
2023-03-05T11:40:30.508Z,15437.47
2023-03-05T11:44:35.466Z,15451.78
2023-03-05T11:48:39.430Z,15457.94
2023-03-05T11:52:46.231Z,15455.88
2023-03-05T11:56:47.774Z,15470.19
2023-03-05T12:00:49.342Z,15462.00
2023-03-05T12:04:51.213Z,15500.84
2023-03-05T12:08:55.851Z,15470.19
2023-03-05T12:13:05.034Z,15468.16
2023-03-05T12:17:15.846Z,15480.41
2023-03-05T12:21:27.480Z,15462.00
2023-03-05T12:25:33.685Z,15447.69
2023-03-05T12:29:41.623Z,15478.38
2023-03-05T12:33:43.644Z,15457.94
2023-03-05T12:38:02.946Z,15455.88
2023-03-05T12:42:45.854Z,15431.34
2023-03-05T12:47:15.269Z,15466.09
2023-03-05T12:51:38.045Z,15437.47
2023-03-05T12:55:51.004Z,15437.47
2023-03-05T13:00:01.255Z,15447.69
2023-03-05T13:04:05.959Z,15406.81
2023-03-05T13:08:15.800Z,15437.47
2023-03-05T13:12:17.642Z,15423.16
2023-03-05T13:16:23.311Z,15457.94
2023-03-05T13:20:29.282Z,15443.63
2023-03-05T13:24:31.091Z,15470.19
2023-03-05T13:28:32.887Z,15480.41
2023-03-05T13:32:38.085Z,15462.00
2023-03-05T13:36:40.249Z,15455.88
2023-03-05T13:40:41.794Z,15466.09
2023-03-05T13:44:43.784Z,15459.97
2023-03-05T13:48:46.509Z,15365.94
2023-03-05T13:52:47.885Z,15386.38
2023-03-05T13:56:54.220Z,15410.91
2023-03-05T14:01:03.495Z,15404.78
2023-03-05T14:05:15.144Z,15425.22
2023-03-05T14:09:20.567Z,15417.03
2023-03-05T14:13:24.724Z,15408.84
2023-03-05T14:17:39.417Z,15408.84
2023-03-05T14:21:47.739Z,15455.88
2023-03-05T14:25:49.264Z,15384.31
2023-03-05T14:29:50.934Z,15412.94
2023-03-05T14:33:53.661Z,15449.75
2023-03-05T14:37:58.193Z,15404.78
2023-03-05T14:42:29.089Z,15394.56
2023-03-05T14:46:30.559Z,15417.03
2023-03-05T14:50:34.069Z,15392.50
2023-03-05T14:54:37.271Z,15441.56
2023-03-05T14:58:38.735Z,15457.94
2023-03-05T15:02:40.239Z,15445.66
2023-03-05T15:06:41.984Z,15433.41
2023-03-05T15:10:44.831Z,15466.09
2023-03-05T15:14:46.229Z,15474.28
2023-03-05T15:18:47.972Z,15478.38
2023-03-05T15:22:49.582Z,15476.31
2023-03-05T15:26:52.557Z,15453.84
2023-03-05T15:30:54.041Z,15449.75
2023-03-05T15:34:58.087Z,15441.56
2023-03-05T15:38:59.493Z,15457.94
2023-03-05T15:43:02.630Z,15455.88
2023-03-05T15:47:04.012Z,15482.47
2023-03-05T15:51:07.211Z,15468.16
2023-03-05T15:55:09.508Z,15462.00
2023-03-05T15:59:12.351Z,15433.41
2023-03-05T16:03:13.770Z,15453.84
2023-03-05T16:07:15.589Z,15437.47
2023-03-05T16:11:19.784Z,15453.84
2023-03-05T16:15:23.252Z,15445.66
2023-03-05T16:19:25.845Z,15441.56
2023-03-05T16:23:27.352Z,15431.34
2023-03-05T16:27:29.309Z,15439.53
2023-03-05T16:31:33.667Z,15406.81
2023-03-05T16:35:35.171Z,15402.72
2023-03-05T16:39:36.738Z,15415.00
2023-03-05T16:43:38.243Z,15433.41
2023-03-05T16:47:41.198Z,15421.13
2023-03-05T16:51:42.619Z,15404.78
2023-03-05T16:55:44.061Z,15400.69
2023-03-05T16:59:45.480Z,15435.44
2023-03-05T17:03:48.881Z,15400.69
2023-03-05T17:07:50.379Z,15408.84
2023-03-05T17:11:52.037Z,15365.94
2023-03-05T17:15:56.270Z,15376.16
2023-03-05T17:20:00.324Z,15382.28
2023-03-05T17:24:01.786Z,15390.47
2023-03-05T17:28:03.546Z,15392.50
2023-03-05T17:32:06.093Z,15380.25
2023-03-05T17:36:14.664Z,15400.69
2023-03-05T17:40:16.898Z,15437.47
2023-03-05T17:44:18.333Z,15410.91
2023-03-05T17:48:19.807Z,15380.25
2023-03-05T17:52:22.597Z,15398.63
2023-03-05T17:56:25.239Z,15425.22
2023-03-05T18:00:30.076Z,15400.69
2023-03-05T18:04:31.605Z,15415.00
2023-03-05T18:08:34.350Z,15404.78
2023-03-05T18:12:36.262Z,15429.31
2023-03-05T18:16:37.812Z,15408.84
2023-03-05T18:20:39.357Z,15408.84
2023-03-05T18:24:42.142Z,15398.63
2023-03-05T18:28:43.680Z,15423.16
2023-03-05T18:32:45.025Z,15441.56
2023-03-05T18:36:46.571Z,15445.66
2023-03-05T18:40:52.623Z,15421.13
2023-03-05T18:44:54.006Z,15435.44
2023-03-05T18:48:55.511Z,15410.91
2023-03-05T18:52:57.205Z,15423.16
2023-03-05T18:56:59.959Z,15429.31
2023-03-05T19:01:01.397Z,15437.47
2023-03-05T19:05:03.164Z,15459.97
2023-03-05T19:09:34.440Z,15412.94
2023-03-05T19:13:37.222Z,15443.63
2023-03-05T19:17:38.687Z,15398.63
2023-03-05T19:21:40.379Z,15415.00
2023-03-05T19:25:41.773Z,15437.47
2023-03-05T19:29:44.579Z,15388.41
2023-03-05T19:33:45.943Z,15408.84
2023-03-05T19:37:47.327Z,15437.47
2023-03-05T19:41:48.745Z,15415.00
2023-03-05T19:45:51.483Z,15427.25
2023-03-05T19:49:52.928Z,15425.22
2023-03-05T19:53:54.348Z,15431.34
2023-03-05T19:57:55.718Z,15404.78
2023-03-05T20:01:58.503Z,15404.78
2023-03-05T20:06:00.037Z,15429.31
2023-03-05T20:10:01.501Z,15427.25
2023-03-05T20:14:03.067Z,15398.63
2023-03-05T20:18:05.882Z,15427.25
2023-03-05T20:22:07.309Z,15388.41
2023-03-05T20:26:08.669Z,15386.38
2023-03-05T20:30:13.058Z,15425.22
2023-03-05T20:34:18.430Z,15365.94
2023-03-05T20:38:20.876Z,15382.28
2023-03-05T20:42:22.371Z,15404.78
2023-03-05T20:46:24.997Z,15335.25
2023-03-05T20:50:27.860Z,15396.59
2023-03-05T20:54:29.295Z,15394.56
2023-03-05T20:58:30.699Z,15392.50
2023-03-05T21:02:32.115Z,15353.66
2023-03-05T21:06:35.455Z,15376.16
2023-03-05T21:10:37.544Z,15367.97
2023-03-05T21:14:38.918Z,15363.88
2023-03-05T21:18:40.435Z,15372.06
2023-03-05T21:22:43.151Z,15372.06
2023-03-05T21:26:44.596Z,15351.63
2023-03-05T21:30:47.882Z,15376.16
2023-03-05T21:34:49.267Z,15367.97
2023-03-05T21:38:51.996Z,15363.88
2023-03-05T21:42:53.450Z,15349.56
2023-03-05T21:46:54.808Z,15365.94
2023-03-05T21:50:56.543Z,15374.09
2023-03-05T21:54:59.277Z,15363.88
2023-03-05T21:59:00.658Z,15363.88
2023-03-05T22:03:02.042Z,15349.56
2023-03-05T22:07:04.941Z,15376.16
2023-03-05T22:11:10.044Z,15339.34
2023-03-05T22:15:11.673Z,15388.41
2023-03-05T22:19:13.047Z,15343.44
2023-03-05T22:23:15.674Z,15351.63
2023-03-05T22:27:18.401Z,15374.09
2023-03-05T22:31:21.027Z,15400.69
2023-03-05T22:35:22.453Z,15347.53
2023-03-05T22:39:23.857Z,15341.41
2023-03-05T22:43:26.621Z,15353.66
2023-03-05T22:47:27.998Z,15335.25
2023-03-05T22:51:29.376Z,15325.03
2023-03-05T22:55:30.780Z,15363.88
2023-03-05T22:59:33.497Z,15318.91
2023-03-05T23:03:34.946Z,15335.25
2023-03-05T23:07:38.887Z,15374.09
2023-03-05T23:11:40.452Z,15327.09
2023-03-05T23:15:43.164Z,15327.09
2023-03-05T23:19:44.561Z,15331.19
2023-03-05T23:23:45.964Z,15357.75
2023-03-05T23:27:47.843Z,15343.44
2023-03-05T23:31:53.695Z,15337.31
2023-03-05T23:35:57.667Z,15351.63
2023-03-05T23:39:59.226Z,15351.63
2023-03-05T23:44:00.617Z,15327.09
2023-03-05T23:48:03.779Z,15329.13
2023-03-05T23:52:05.700Z,15349.56
2023-03-05T23:56:11.514Z,15320.94
